Terminal Aerodrome Forecast
Issued by NWS

Home | Current Version | Previous Version | Text Only | Print | Product List | Glossary On
Versions: 1 2 3 4 5 6 7 8 9 10 11 12 13 14 15 16 17 18
000
FTUS41 KCAR 270526
TAFPQI
TAF
KPQI 270526Z 2706/2806 23007KT P6SM OVC015
     FM271000 25006KT P6SM SCT070
     FM271600 22005KT P6SM BKN070
     FM272200 18005KT 5SM -RA OVC035
     FM280300 16004KT P6SM VCSH OVC009=

USA.gov is the U.S. government's official web portal to all federal, state and local government web resources and services.